首页
METAR-TAF:

METAR-TAF

机场 :

尼诺伊·阿基诺国际机场

马尼拉, 菲律宾

纬度: 14-31N, 经度: 121-00E, 海拔: 14米

当前天气观测

该预报发布于18分钟前的05:00 UTC
风速12节,风向东转东南,在东南之间变化
温度 33°C
湿度 49%
气压 1009 hPa
能见度10公里或以上
少量云层高于2500英尺

METAR: RPLL 140500Z 11012KT 080V140 9999 FEW025 33/21 Q1009 NOSIG RMK A2980

时间: 13:18 (05:18 UTC)

预报

该预报发布于6小时和18分钟前的23:00 UTC
预报有效从14日的 00点(UTC)到 15日的 06点(UTC)
风速6节,风向
能见度10公里或以上
少量云层高于2500英尺
短暂存在
从 14日的 00点(UTC)到 14日的 06点(UTC)
风速12节,风向
散云层高于2300英尺
散云层高于10000英尺
短暂存在
从 14日的 06点(UTC)到 14日的 12点(UTC)
风速14节,风向东转东南
散云层高于2300英尺
多云层高于10000英尺

TAF: RPLL 132300Z 1400/1506 10006KT 9999 FEW025 TX32/1406Z TN25/1421Z TEMPO 1400/1406 08012KT SCT023 SCT100 TEMPO 1406/1412 12014KT SCT023 BKN100

超过4000个机场的气象观测和天气预报(METAR&TAF报告)。

可查询的气象台以黄色和红色小点在地图上表示。

将鼠标移到小点上方,可查看气象台名称。

然后点击查看天气观测和预报。

如需切换地图:点击带黑十字的绿色按钮放大地图;点击带横线的绿色按钮缩小地图;或者点击绿色箭头查看邻近地区的地图。


METAR-TAF: